createdAt,value
2018-08-12T00:00:18.581Z,17.90
2018-08-12T00:02:45.914Z,17.80
2018-08-12T00:05:13.221Z,17.80
2018-08-12T00:07:40.577Z,17.90
2018-08-12T00:10:08.397Z,18.00
2018-08-12T00:12:35.709Z,17.90
2018-08-12T00:15:03.870Z,18.00
2018-08-12T00:17:31.159Z,17.90
2018-08-12T00:19:58.474Z,17.90
2018-08-12T00:22:25.766Z,17.90
2018-08-12T00:24:53.058Z,17.80
2018-08-12T00:27:20.368Z,17.70
2018-08-12T00:29:47.667Z,17.60
2018-08-12T00:32:15.066Z,17.50
2018-08-12T00:34:42.397Z,17.40
2018-08-12T00:37:09.704Z,17.40
2018-08-12T00:39:37.004Z,17.40
2018-08-12T00:42:04.318Z,17.40
2018-08-12T00:44:31.631Z,17.50
2018-08-12T00:46:59.018Z,17.50
2018-08-12T00:49:26.311Z,17.50
2018-08-12T00:51:53.618Z,17.40
2018-08-12T00:54:20.942Z,17.40
2018-08-12T00:56:48.237Z,17.30
2018-08-12T00:59:16.022Z,17.30
2018-08-12T01:01:43.336Z,17.20
2018-08-12T01:04:10.715Z,17.20
2018-08-12T01:06:38.043Z,17.20
2018-08-12T01:09:08.172Z,17.20
2018-08-12T01:11:35.569Z,17.20
2018-08-12T01:14:02.859Z,17.20
2018-08-12T01:16:30.202Z,17.20
2018-08-12T01:18:57.494Z,17.20
2018-08-12T01:21:24.811Z,17.20
2018-08-12T01:23:52.104Z,17.20
2018-08-12T01:26:19.937Z,17.30
2018-08-12T01:28:47.250Z,17.30
2018-08-12T01:31:14.586Z,17.30
2018-08-12T01:33:41.886Z,17.20
2018-08-12T01:36:09.207Z,17.00
2018-08-12T01:38:36.522Z,17.00
2018-08-12T01:41:03.846Z,17.00
2018-08-12T01:43:31.159Z,17.00
2018-08-12T01:45:58.458Z,17.00
2018-08-12T01:48:25.776Z,17.00
2018-08-12T01:50:53.063Z,16.90
2018-08-12T01:53:20.457Z,16.90
2018-08-12T01:55:47.737Z,16.90
2018-08-12T01:58:15.054Z,16.90
2018-08-12T02:00:42.418Z,16.90
2018-08-12T02:03:09.726Z,16.80
2018-08-12T02:05:37.018Z,16.60
2018-08-12T02:08:04.346Z,16.60
2018-08-12T02:10:31.645Z,16.40
2018-08-12T02:12:58.982Z,16.30
2018-08-12T02:15:26.329Z,16.20
2018-08-12T02:17:53.619Z,16.20
2018-08-12T02:20:20.945Z,16.30
2018-08-12T02:22:48.236Z,16.20
2018-08-12T02:25:15.570Z,16.00
2018-08-12T02:27:42.886Z,15.90
2018-08-12T02:30:10.197Z,15.80
2018-08-12T02:32:37.509Z,15.70
2018-08-12T02:35:05.048Z,15.70
2018-08-12T02:37:32.375Z,15.70
2018-08-12T02:39:59.694Z,15.60
2018-08-12T02:42:26.994Z,15.70
2018-08-12T02:44:54.319Z,15.80
2018-08-12T02:47:21.610Z,15.70
2018-08-12T02:49:48.922Z,15.60
2018-08-12T02:52:16.230Z,15.50
2018-08-12T02:54:43.545Z,15.60
2018-08-12T02:57:10.851Z,15.60
2018-08-12T02:59:38.231Z,15.60
2018-08-12T03:02:05.581Z,15.60
2018-08-12T03:04:32.880Z,15.60
2018-08-12T03:07:00.208Z,15.60
2018-08-12T03:09:27.543Z,15.60
2018-08-12T03:11:54.826Z,15.70
2018-08-12T03:14:22.165Z,15.90
2018-08-12T03:16:49.485Z,15.80
2018-08-12T03:19:16.802Z,15.80
2018-08-12T03:21:44.129Z,15.70
2018-08-12T03:24:11.453Z,15.70
2018-08-12T03:26:39.809Z,15.50
2018-08-12T03:29:07.109Z,15.40
2018-08-12T03:31:34.426Z,15.40
2018-08-12T03:34:01.735Z,15.40
2018-08-12T03:36:29.054Z,15.40
2018-08-12T03:38:56.396Z,15.50
2018-08-12T03:41:23.714Z,15.50
2018-08-12T03:43:51.010Z,15.40
2018-08-12T03:46:18.305Z,15.20
2018-08-12T03:48:45.657Z,15.20
2018-08-12T03:51:12.950Z,15.20
2018-08-12T03:53:40.228Z,15.20
2018-08-12T03:56:07.505Z,15.20
2018-08-12T03:58:34.820Z,15.30
2018-08-12T04:01:02.117Z,15.40
2018-08-12T04:03:29.606Z,15.40
2018-08-12T04:05:56.912Z,15.30
2018-08-12T04:08:24.206Z,15.30
2018-08-12T04:10:51.510Z,15.20
2018-08-12T04:13:18.816Z,15.10
2018-08-12T04:15:46.166Z,15.00
2018-08-12T04:18:13.486Z,14.90
2018-08-12T04:20:40.785Z,14.80
2018-08-12T04:23:08.085Z,14.90
2018-08-12T04:25:35.396Z,14.90
2018-08-12T04:28:02.750Z,14.90
2018-08-12T04:30:30.087Z,14.80
2018-08-12T04:32:57.434Z,14.90
2018-08-12T04:35:24.741Z,15.00
2018-08-12T04:37:52.051Z,15.00
2018-08-12T04:40:19.401Z,15.10
2018-08-12T04:42:46.706Z,15.00
2018-08-12T04:45:13.993Z,15.00
2018-08-12T04:47:41.426Z,15.00
2018-08-12T04:50:08.730Z,14.90
2018-08-12T04:52:36.025Z,14.90
2018-08-12T04:55:03.645Z,15.00
2018-08-12T04:57:30.958Z,15.10
2018-08-12T04:59:58.268Z,15.20
2018-08-12T05:02:25.602Z,15.20
2018-08-12T05:04:52.927Z,15.30
2018-08-12T05:07:20.228Z,15.30
2018-08-12T05:09:47.553Z,15.40
2018-08-12T05:12:14.853Z,15.50
2018-08-12T05:14:42.163Z,15.50
2018-08-12T05:17:09.535Z,15.60
2018-08-12T05:19:36.823Z,15.60
2018-08-12T05:22:04.126Z,15.70
2018-08-12T05:24:31.449Z,15.70
2018-08-12T05:26:58.768Z,15.90
2018-08-12T05:29:26.098Z,16.10
2018-08-12T05:31:53.424Z,16.10
2018-08-12T05:34:20.710Z,16.10
2018-08-12T05:36:47.994Z,16.00
2018-08-12T05:39:15.302Z,16.00
2018-08-12T05:41:42.630Z,16.10
2018-08-12T05:44:09.961Z,16.20
2018-08-12T05:46:37.257Z,16.20
2018-08-12T05:49:04.550Z,16.30
2018-08-12T05:51:32.045Z,16.30
2018-08-12T05:53:59.311Z,16.30
2018-08-12T05:56:26.615Z,16.30
2018-08-12T05:58:53.934Z,16.50
2018-08-12T06:01:21.232Z,16.70
2018-08-12T06:03:48.529Z,16.80
2018-08-12T06:06:15.942Z,16.90
2018-08-12T06:08:43.312Z,17.00
2018-08-12T06:11:10.574Z,16.90
2018-08-12T06:13:37.879Z,16.90
2018-08-12T06:16:05.237Z,17.00
2018-08-12T06:18:32.530Z,17.10
2018-08-12T06:21:00.022Z,17.20
2018-08-12T06:23:27.397Z,17.20
2018-08-12T06:25:54.706Z,17.20
2018-08-12T06:28:21.999Z,17.30
2018-08-12T06:30:49.693Z,17.30
2018-08-12T06:33:17.007Z,17.50
2018-08-12T06:35:44.330Z,17.50
2018-08-12T06:38:11.645Z,17.60
2018-08-12T06:40:38.952Z,17.90
2018-08-12T06:43:06.266Z,18.00
2018-08-12T06:45:33.600Z,18.20
2018-08-12T06:48:00.902Z,18.20
2018-08-12T06:50:28.295Z,18.20
2018-08-12T06:52:55.623Z,18.20
2018-08-12T06:55:22.953Z,18.30
2018-08-12T06:57:50.265Z,18.40
2018-08-12T07:00:17.923Z,18.40
2018-08-12T07:02:45.243Z,18.30
2018-08-12T07:05:12.549Z,18.60
2018-08-12T07:07:39.873Z,18.70
2018-08-12T07:10:11.094Z,18.70
2018-08-12T07:12:38.505Z,18.70
2018-08-12T07:15:08.811Z,18.80
2018-08-12T07:17:36.131Z,18.80
2018-08-12T07:20:04.900Z,18.80
2018-08-12T07:22:32.190Z,18.80
2018-08-12T07:24:59.509Z,18.80
2018-08-12T07:27:26.925Z,19.00
2018-08-12T07:29:54.262Z,19.00
2018-08-12T07:32:21.642Z,19.00
2018-08-12T07:34:49.026Z,19.20
2018-08-12T07:37:16.359Z,19.30
2018-08-12T07:39:43.649Z,19.40
2018-08-12T07:42:10.971Z,19.50
2018-08-12T07:44:38.271Z,19.60
2018-08-12T07:47:05.569Z,19.60
2018-08-12T07:49:32.881Z,19.80
2018-08-12T07:52:00.219Z,19.90
2018-08-12T07:54:27.590Z,20.10
2018-08-12T07:56:54.887Z,20.20
2018-08-12T07:59:22.255Z,20.10
2018-08-12T08:01:49.568Z,20.10
2018-08-12T08:04:16.938Z,20.20
2018-08-12T08:06:44.231Z,20.40
2018-08-12T08:09:11.550Z,20.60
2018-08-12T08:11:38.849Z,20.70
2018-08-12T08:14:06.204Z,20.60
2018-08-12T08:16:33.519Z,20.70
2018-08-12T08:19:00.831Z,20.70
2018-08-12T08:21:28.140Z,20.80
2018-08-12T08:23:55.439Z,21.10
2018-08-12T08:26:22.744Z,21.40
2018-08-12T08:28:50.181Z,21.40
2018-08-12T08:31:17.505Z,21.60
2018-08-12T08:33:44.853Z,21.70
2018-08-12T08:36:12.151Z,21.60
2018-08-12T08:38:39.546Z,21.60
2018-08-12T08:41:06.927Z,21.20
2018-08-12T08:43:34.285Z,21.10
2018-08-12T08:46:01.573Z,21.40
2018-08-12T08:48:28.865Z,21.60
2018-08-12T08:50:56.216Z,21.60
2018-08-12T08:53:23.507Z,21.70
2018-08-12T08:55:50.835Z,21.80
2018-08-12T08:58:18.111Z,21.80
2018-08-12T09:00:45.430Z,21.80
2018-08-12T09:03:12.722Z,21.80
2018-08-12T09:05:40.072Z,22.00
2018-08-12T09:08:07.431Z,22.20
2018-08-12T09:10:34.702Z,22.40
2018-08-12T09:13:02.054Z,22.70
2018-08-12T09:15:29.380Z,22.90
2018-08-12T09:17:56.754Z,22.90
2018-08-12T09:20:24.058Z,23.00
2018-08-12T09:22:51.378Z,22.90
2018-08-12T09:25:18.729Z,22.90
2018-08-12T09:27:46.073Z,23.10
2018-08-12T09:30:14.150Z,23.20
2018-08-12T09:32:41.778Z,23.50
2018-08-12T09:35:09.263Z,23.60
2018-08-12T09:37:36.575Z,23.80
2018-08-12T09:40:05.816Z,23.80
2018-08-12T09:42:33.141Z,23.50
2018-08-12T09:45:00.510Z,23.50
2018-08-12T09:47:27.883Z,23.60
2018-08-12T09:49:55.181Z,23.70
2018-08-12T09:52:22.519Z,23.90
2018-08-12T09:54:49.883Z,24.00
2018-08-12T09:57:17.302Z,23.90
2018-08-12T09:59:44.642Z,24.00
2018-08-12T10:02:11.961Z,24.10
2018-08-12T10:04:39.257Z,24.20
2018-08-12T10:07:06.585Z,24.30
2018-08-12T10:09:33.899Z,24.40
2018-08-12T10:12:01.250Z,24.40
2018-08-12T10:14:28.554Z,24.40
2018-08-12T10:16:55.875Z,24.40
2018-08-12T10:19:23.246Z,24.40
2018-08-12T10:21:50.623Z,24.10
2018-08-12T10:24:17.945Z,23.60
2018-08-12T10:26:45.292Z,23.40
2018-08-12T10:29:12.671Z,23.30
2018-08-12T10:31:39.917Z,23.60
2018-08-12T10:34:07.238Z,23.90
2018-08-12T10:36:34.539Z,24.10
2018-08-12T10:39:01.873Z,24.30
2018-08-12T10:41:29.165Z,24.60
2018-08-12T10:43:56.511Z,24.70
2018-08-12T10:46:23.831Z,24.90
2018-08-12T10:48:51.176Z,25.00
2018-08-12T10:51:18.530Z,25.20
2018-08-12T10:53:45.937Z,25.10
2018-08-12T10:56:13.261Z,25.10
2018-08-12T10:58:40.581Z,25.20
2018-08-12T11:01:07.899Z,25.30
2018-08-12T11:03:35.261Z,25.50
2018-08-12T11:06:02.616Z,25.50
2018-08-12T11:08:29.901Z,25.60
2018-08-12T11:10:57.266Z,25.70
2018-08-12T11:13:24.562Z,25.80
2018-08-12T11:15:51.899Z,25.80
2018-08-12T11:18:19.291Z,25.90
2018-08-12T11:20:46.638Z,25.90
2018-08-12T11:23:13.995Z,25.90
2018-08-12T11:25:41.321Z,25.70
2018-08-12T11:28:08.687Z,25.30
2018-08-12T11:30:36.027Z,25.40
2018-08-12T11:33:03.583Z,25.60
2018-08-12T11:35:30.963Z,25.90
2018-08-12T11:37:58.273Z,26.00
2018-08-12T11:40:25.575Z,26.00
2018-08-12T11:42:52.910Z,26.30
2018-08-12T11:45:20.257Z,26.30
2018-08-12T11:47:47.663Z,26.30
2018-08-12T11:50:15.794Z,26.00
2018-08-12T11:52:43.136Z,26.00
2018-08-12T11:55:10.910Z,26.30
2018-08-12T11:57:38.262Z,26.40
2018-08-12T12:00:08.634Z,26.40
2018-08-12T12:02:36.474Z,26.50
2018-08-12T12:05:05.525Z,26.60
2018-08-12T12:07:32.811Z,26.70
2018-08-12T12:10:00.117Z,26.90
2018-08-12T12:12:27.443Z,27.10
2018-08-12T12:14:54.755Z,27.00
2018-08-12T12:17:22.163Z,27.00
2018-08-12T12:19:49.495Z,27.00
2018-08-12T12:22:16.862Z,27.00
2018-08-12T12:24:44.191Z,27.10
2018-08-12T12:27:11.507Z,27.10
2018-08-12T12:29:38.842Z,26.90
2018-08-12T12:32:06.417Z,27.00
2018-08-12T12:34:33.811Z,27.10
2018-08-12T12:37:01.091Z,27.30
2018-08-12T12:39:28.435Z,27.40
2018-08-12T12:41:55.757Z,27.40
2018-08-12T12:44:23.055Z,27.40
2018-08-12T12:46:50.387Z,27.40
2018-08-12T12:49:17.777Z,27.30
2018-08-12T12:51:45.151Z,26.90
2018-08-12T12:54:12.472Z,27.00
2018-08-12T12:56:39.784Z,27.20
2018-08-12T12:59:07.148Z,27.30
2018-08-12T13:01:34.458Z,27.30
2018-08-12T13:04:01.787Z,27.30
2018-08-12T13:06:29.092Z,27.40
2018-08-12T13:08:56.467Z,27.50
2018-08-12T13:11:23.801Z,27.30
2018-08-12T13:13:51.145Z,26.90
2018-08-12T13:16:18.538Z,26.70
2018-08-12T13:18:45.901Z,26.30
2018-08-12T13:21:13.240Z,26.20
2018-08-12T13:23:40.555Z,26.40
2018-08-12T13:26:07.862Z,26.60
2018-08-12T13:28:35.158Z,26.80
2018-08-12T13:31:02.463Z,27.00
2018-08-12T13:33:29.796Z,27.30
2018-08-12T13:35:57.086Z,27.50
2018-08-12T13:38:24.383Z,27.80
2018-08-12T13:40:51.698Z,27.80
2018-08-12T13:43:19.071Z,27.90
2018-08-12T13:45:46.405Z,28.10
2018-08-12T13:48:13.714Z,28.40
2018-08-12T13:50:41.050Z,28.60
2018-08-12T13:53:08.433Z,28.70
2018-08-12T13:55:35.683Z,28.70
2018-08-12T13:58:03.013Z,28.70
2018-08-12T14:00:30.319Z,28.70
2018-08-12T14:02:57.623Z,28.60
2018-08-12T14:08:09.290Z,28.80
2018-08-12T14:10:36.641Z,28.80
2018-08-12T14:13:04.003Z,28.80
2018-08-12T14:15:31.310Z,28.80
2018-08-12T14:17:58.644Z,28.90
2018-08-12T14:20:25.966Z,29.10
2018-08-12T14:22:53.261Z,29.20
2018-08-12T14:25:20.586Z,29.20
2018-08-12T14:27:47.926Z,29.20
2018-08-12T14:30:15.562Z,29.20
2018-08-12T14:32:42.892Z,29.30
2018-08-12T14:35:10.230Z,29.30
2018-08-12T14:37:37.579Z,29.30
2018-08-12T14:40:05.432Z,29.40
2018-08-12T14:42:32.871Z,29.50
2018-08-12T14:45:00.187Z,29.60
2018-08-12T14:47:27.596Z,29.50
2018-08-12T14:49:54.914Z,29.50
2018-08-12T14:52:22.228Z,29.50
2018-08-12T14:54:49.591Z,29.60
2018-08-12T14:57:17.060Z,29.70
2018-08-12T14:59:44.364Z,29.80
2018-08-12T15:02:11.659Z,29.80
2018-08-12T15:04:39.027Z,29.90
2018-08-12T15:07:06.403Z,30.00
2018-08-12T15:09:33.704Z,30.00
2018-08-12T15:12:01.014Z,30.10
2018-08-12T15:14:28.333Z,30.10
2018-08-12T15:16:55.660Z,30.10
2018-08-12T15:19:22.999Z,30.20
2018-08-12T15:21:50.346Z,30.30
2018-08-12T15:24:17.670Z,30.40
2018-08-12T15:26:45.258Z,30.50
2018-08-12T15:29:12.601Z,30.60
2018-08-12T15:31:39.905Z,30.70
2018-08-12T15:34:07.770Z,30.80
2018-08-12T15:36:35.102Z,30.90
2018-08-12T15:39:02.419Z,30.90
2018-08-12T15:41:29.772Z,30.90
2018-08-12T15:43:57.895Z,31.00
2018-08-12T15:46:25.215Z,31.00
2018-08-12T15:48:52.556Z,30.90
2018-08-12T15:51:19.904Z,30.70
2018-08-12T15:53:47.300Z,30.70
2018-08-12T15:56:14.668Z,30.70
2018-08-12T15:58:42.012Z,30.70
2018-08-12T16:01:09.318Z,30.80
2018-08-12T16:03:36.647Z,30.90
2018-08-12T16:06:03.974Z,31.00
2018-08-12T16:08:31.302Z,30.90
2018-08-12T16:10:58.615Z,30.90
2018-08-12T16:13:25.960Z,30.90
2018-08-12T16:15:53.272Z,30.90
2018-08-12T16:18:20.596Z,31.00
2018-08-12T16:20:47.947Z,31.10
2018-08-12T16:23:15.484Z,31.10
2018-08-12T16:25:42.778Z,31.30
2018-08-12T16:28:10.548Z,31.30
2018-08-12T16:30:37.851Z,31.40
2018-08-12T16:33:05.310Z,31.70
2018-08-12T16:35:32.641Z,32.10
2018-08-12T16:37:59.943Z,32.60
2018-08-12T16:40:27.323Z,33.30
2018-08-12T16:42:54.642Z,33.90
2018-08-12T16:45:22.094Z,34.00
2018-08-12T16:47:49.418Z,33.80
2018-08-12T16:50:16.772Z,33.40
2018-08-12T16:52:44.173Z,33.20
2018-08-12T16:55:12.778Z,33.20
2018-08-12T16:57:40.139Z,33.00
2018-08-12T17:00:11.137Z,32.80
2018-08-12T17:02:38.457Z,32.50
2018-08-12T17:05:09.061Z,32.00
2018-08-12T17:07:36.400Z,31.60
2018-08-12T17:10:04.793Z,31.30
2018-08-12T17:12:32.099Z,31.00
2018-08-12T17:14:59.462Z,30.70
2018-08-12T17:17:26.739Z,30.40
2018-08-12T17:19:54.090Z,30.20
2018-08-12T17:22:21.466Z,30.10
2018-08-12T17:24:48.772Z,30.10
2018-08-12T17:27:16.355Z,30.00
2018-08-12T17:29:43.680Z,29.90
2018-08-12T17:32:10.983Z,29.80
2018-08-12T17:34:38.327Z,29.80
2018-08-12T17:37:05.643Z,29.70
2018-08-12T17:39:32.946Z,29.60
2018-08-12T17:42:00.249Z,29.60
2018-08-12T17:44:27.578Z,29.50
2018-08-12T17:46:54.899Z,29.40
2018-08-12T17:49:22.262Z,29.30
2018-08-12T17:51:49.579Z,29.30
2018-08-12T17:54:17.043Z,29.40
2018-08-12T17:56:44.290Z,29.50
2018-08-12T17:59:11.610Z,29.60
2018-08-12T18:01:38.933Z,29.70
2018-08-12T18:04:06.346Z,29.60
2018-08-12T18:06:33.702Z,29.50
2018-08-12T18:09:00.997Z,29.40
2018-08-12T18:11:28.336Z,29.30
2018-08-12T18:13:55.662Z,29.30
2018-08-12T18:16:23.002Z,29.30
2018-08-12T18:18:50.307Z,29.20
2018-08-12T18:21:17.648Z,29.20
2018-08-12T18:23:44.977Z,29.10
2018-08-12T18:26:12.332Z,29.20
2018-08-12T18:28:39.627Z,29.30
2018-08-12T18:31:06.945Z,29.30
2018-08-12T18:33:34.240Z,29.20
2018-08-12T18:36:01.551Z,29.00
2018-08-12T18:38:28.910Z,28.80
2018-08-12T18:40:56.227Z,28.50
2018-08-12T18:43:23.557Z,28.30
2018-08-12T18:45:50.878Z,28.10
2018-08-12T18:48:18.216Z,27.80
2018-08-12T18:50:45.566Z,27.50
2018-08-12T18:53:12.934Z,27.30
2018-08-12T18:55:40.204Z,27.20
2018-08-12T18:58:07.516Z,27.00
2018-08-12T19:00:34.833Z,26.90
2018-08-12T19:03:02.132Z,26.70
2018-08-12T19:05:29.438Z,26.60
2018-08-12T19:07:56.759Z,26.30
2018-08-12T19:10:24.068Z,26.20
2018-08-12T19:12:51.422Z,25.90
2018-08-12T19:15:18.741Z,25.80
2018-08-12T19:17:46.078Z,25.60
2018-08-12T19:20:13.410Z,25.50
2018-08-12T19:22:40.688Z,25.40
2018-08-12T19:25:08.053Z,25.30
2018-08-12T19:27:35.361Z,25.20
2018-08-12T19:30:03.388Z,25.10
2018-08-12T19:32:30.698Z,25.00
2018-08-12T19:34:58.091Z,24.90
2018-08-12T19:37:25.394Z,24.80
2018-08-12T19:39:52.769Z,24.50
2018-08-12T19:42:20.083Z,24.40
2018-08-12T19:44:47.460Z,24.30
2018-08-12T19:47:14.772Z,24.10
2018-08-12T19:49:42.068Z,24.00
2018-08-12T19:52:09.431Z,23.90
2018-08-12T19:54:36.761Z,23.90
2018-08-12T19:57:04.129Z,23.70
2018-08-12T19:59:31.438Z,23.50
2018-08-12T20:01:58.749Z,23.50
2018-08-12T20:04:26.148Z,23.40
2018-08-12T20:06:53.502Z,23.40
2018-08-12T20:09:20.854Z,23.40
2018-08-12T20:11:48.253Z,23.40
2018-08-12T20:14:15.575Z,23.30
2018-08-12T20:16:42.879Z,23.30
2018-08-12T20:19:10.208Z,23.30
2018-08-12T20:21:37.530Z,23.20
2018-08-12T20:24:04.863Z,23.20
2018-08-12T20:26:32.178Z,23.10
2018-08-12T20:28:59.511Z,23.10
2018-08-12T20:31:26.817Z,23.00
2018-08-12T20:33:54.198Z,23.00
2018-08-12T20:36:21.488Z,22.90
2018-08-12T20:38:48.799Z,22.90
2018-08-12T20:41:16.360Z,22.70
2018-08-12T20:43:43.655Z,22.60
2018-08-12T20:46:10.973Z,22.60
2018-08-12T20:48:38.260Z,22.60
2018-08-12T20:51:05.583Z,22.60
2018-08-12T20:53:32.900Z,22.60
2018-08-12T20:56:00.292Z,22.50
2018-08-12T20:58:27.616Z,22.40
2018-08-12T21:00:54.944Z,22.30
2018-08-12T21:03:22.314Z,22.30
2018-08-12T21:05:49.663Z,22.40
2018-08-12T21:08:17.007Z,22.30
2018-08-12T21:10:44.375Z,22.20
2018-08-12T21:13:11.727Z,22.20
2018-08-12T21:15:39.027Z,22.10
2018-08-12T21:18:06.440Z,22.10
2018-08-12T21:20:33.745Z,22.10
2018-08-12T21:23:01.061Z,22.00
2018-08-12T21:25:28.360Z,22.00
2018-08-12T21:27:55.679Z,21.90
2018-08-12T21:30:22.997Z,22.00
2018-08-12T21:32:50.312Z,22.10
2018-08-12T21:35:17.687Z,22.10
2018-08-12T21:37:44.995Z,22.10
2018-08-12T21:40:13.163Z,22.20
2018-08-12T21:42:40.569Z,22.10
2018-08-12T21:45:07.893Z,22.10
2018-08-12T21:47:35.201Z,22.10
2018-08-12T21:50:02.577Z,22.10
2018-08-12T21:52:30.730Z,22.10
2018-08-12T21:54:58.038Z,22.10
2018-08-12T21:57:25.457Z,22.00
2018-08-12T21:59:52.766Z,21.90
2018-08-12T22:02:20.106Z,21.90
2018-08-12T22:04:47.423Z,21.80
2018-08-12T22:07:14.763Z,21.70
2018-08-12T22:09:42.071Z,21.70
2018-08-12T22:12:09.379Z,21.70
2018-08-12T22:14:36.755Z,21.60
2018-08-12T22:17:04.082Z,21.50
2018-08-12T22:19:31.466Z,21.50
2018-08-12T22:21:58.798Z,21.40
2018-08-12T22:24:26.107Z,21.40
2018-08-12T22:26:53.419Z,21.30
2018-08-12T22:29:20.729Z,21.10
2018-08-12T22:31:48.056Z,21.10
2018-08-12T22:34:15.382Z,21.10
2018-08-12T22:36:42.899Z,21.10
2018-08-12T22:39:10.224Z,21.10
2018-08-12T22:41:37.553Z,21.20
2018-08-12T22:44:04.870Z,21.30
2018-08-12T22:46:32.182Z,21.30
2018-08-12T22:48:59.521Z,21.30
2018-08-12T22:51:26.974Z,21.30
2018-08-12T22:53:54.276Z,21.30
2018-08-12T22:56:21.596Z,21.30
2018-08-12T22:58:48.979Z,21.20
2018-08-12T23:01:16.384Z,21.20
2018-08-12T23:03:43.684Z,21.10
2018-08-12T23:06:10.998Z,21.10
2018-08-12T23:08:38.319Z,21.10
2018-08-12T23:13:39.391Z,21.10
2018-08-12T23:16:18.041Z,21.00
2018-08-12T23:18:45.344Z,21.00
2018-08-12T23:21:12.679Z,20.90
2018-08-12T23:23:40.048Z,20.80
2018-08-12T23:26:07.480Z,20.90
2018-08-12T23:28:34.798Z,21.00
2018-08-12T23:31:02.098Z,21.00
2018-08-12T23:33:29.446Z,21.00
2018-08-12T23:35:56.735Z,21.00
2018-08-12T23:38:24.040Z,21.00
2018-08-12T23:40:51.384Z,21.00
2018-08-12T23:43:18.741Z,21.00
2018-08-12T23:45:46.138Z,21.00
2018-08-12T23:48:13.457Z,20.80
2018-08-12T23:50:40.752Z,20.70
2018-08-12T23:53:08.068Z,20.70
2018-08-12T23:55:35.401Z,20.70
2018-08-12T23:58:02.766Z,20.70
